Kinglassie, United Kingdom
Current Conditions -  °F | °C
As of 10:20 PM on Tuesday 25 Nov 2014 (Local Time) from EGPH Reporting Station
Broken Clouds Broken Clouds  
Wind Chill: 42°   Ceiling: 4200
Heat Index: 45°   Visibility: 6mi
Dew Point: 43°   Wind: 5mph
Humidity: 93%   Direction: 50°NE
Pressure: 30.12"   Gusts: NA
Location:  56.17°N, 3.24°W
Report Text: EGPH 252220Z 05004KT 9999 BKN042 07/06 Q1020
Loading
Personal Weather Stations






























Interactive Weather Map New forecast layout! Learn more

10-Day Weather Forecast

Advertisements
Track Severe Weather on mobile